Погода Гостинкана неделю

Смоленская область, Россия

24 - 30 мая
  • 24мая
    Сегодня
    +8°
    +22°
    Практически безоблачно
    ВремяПогодаТемператураВлажностьДавлениеВетер, м/сВероятность осадков
    00:00Ясно и безоблачно+13°C55 %754 мм4.2 м/с2 %
    03:00Ясно и безоблачно+11°C55 %755 мм4.2 м/с2 %
    06:00Ясно и безоблачно+10°C57 %756 мм4.2 м/с2 %
    09:00Ясно и безоблачно+16°C50 %756 мм4.7 м/с2 %
    12:00Ясно и безоблачно+20°C36 %757 мм5.2 м/с2 %
    15:00Практически безоблачно+22°C33 %756 мм4.6 м/с2 %
    18:00Ясно и безоблачно+20°C34 %755 мм4.4 м/с2 %
    21:00Ясно и безоблачно+15°C51 %756 мм2.7 м/с2 %
  • 25мая
    Суббота
    +9°
    +24°
    Ясно и безоблачно
    ВремяПогодаТемператураВлажностьДавлениеВетер, м/сВероятность осадков
    00:00Ясно и безоблачно+11°C58 %756 мм3.1 м/с2 %
    03:00Ясно и безоблачно+9°C63 %756 мм3.1 м/с2 %
    06:00Ясно и безоблачно+10°C66 %755 мм2.8 м/с2 %
    09:00Ясно и безоблачно+17°C51 %756 мм2.6 м/с2 %
    12:00Ясно и безоблачно+21°C43 %755 мм2.4 м/с2 %
    15:00Ясно и безоблачно+23°C37 %754 мм2.8 м/с2 %
    18:00Ясно и безоблачно+23°C38 %753 мм2.2 м/с2 %
    21:00Ясно и безоблачно+17°C61 %753 мм2.2 м/с2 %
  • 26мая
    Воскресенье
    +11°
    +25°
    Небольшая облачность
    ВремяПогодаТемператураВлажностьДавлениеВетер, м/сВероятность осадков
    00:00Ясно и безоблачно+12°C71 %753 мм2.4 м/с2 %
    03:00Практически безоблачно+10°C78 %753 мм2.7 м/с2 %
    06:00Облачно с прояснениями+11°C74 %753 мм1.1 м/с2 %
    09:00Облачно с прояснениями+18°C53 %753 мм0.9 м/с2 %
    12:00Небольшая облачность+23°C39 %753 мм1.3 м/с2 %
    15:00Небольшая облачность+25°C32 %752 мм2.5 м/с2 %
    18:00Практически безоблачно+24°C33 %751 мм1.8 м/с2 %
    21:00Ясно и безоблачно+17°C58 %751 мм2.5 м/с2 %
  • 27мая
    Понедельник
    +12°
    +25°
    Практически безоблачно
    ВремяПогодаТемператураВлажностьДавлениеВетер, м/сВероятность осадков
    00:00Ясно и безоблачно+15°C68 %751 мм1.1 м/с2 %
    03:00Ясно и безоблачно+13°C77 %752 мм1.3 м/с2 %
    06:00Ясно и безоблачно+13°C85 %752 мм2.2 м/с2 %
    09:00Ясно и безоблачно+19°C67 %753 мм2.2 м/с2 %
    12:00Ясно и безоблачно+24°C46 %753 мм2.1 м/с5 %
    15:00Практически безоблачно+25°C41 %752 мм1.5 м/с23 %
    18:00Ясно и безоблачно+23°C43 %752 мм1.9 м/с26 %
    21:00Практически безоблачно+20°C63 %752 мм2.6 м/с4 %
  • 28мая
    Вторник
    +12°
    +25°
    Практически безоблачно
    ВремяПогодаТемператураВлажностьДавлениеВетер, м/сВероятность осадков
    00:00Ясно и безоблачно+16°C76 %752 мм3.1 м/с2 %
    03:00Ясно и безоблачно+14°C90 %752 мм2.0 м/с2 %
    06:00Ясно и безоблачно+12°C90 %752 мм2.5 м/с2 %
    09:00Ясно и безоблачно+20°C67 %752 мм2.3 м/с2 %
    12:00Практически безоблачно+24°C49 %752 мм2.6 м/с2 %
    15:00Практически безоблачно+25°C44 %751 мм2.5 м/с7 %
    18:00Ясно и безоблачно+24°C43 %750 мм2.2 м/с6 %
    21:00Практически безоблачно+19°C65 %750 мм2.3 м/с4 %
Мы используем cookies
Соглашаюсь